Country
Station

 

Weather  for  Santa Maria, Santa Maria Public Airport  -  United States    United States

  
16 °C (61 °F)
    
 
 

Current METAR for Santa Maria, Santa Maria Public Airport is :

KSMX 192051Z 29024KT 10SM SCT045 16/08 A3011 RMK AO2 PK WND 29029/2041 SLP198 T01610078 55004 $

 

This is a report for Santa Maria, Santa Maria Public Airport - United States.
 
The report was made 36 minutes ago, at 20:51 UTC .
The wind was blowing at a speed of 12.3 meters per second (27.6 miles per hour) from west/northwest (290°).
 
The temperature was 16 °C (61 °F), with a dew-point at 8 °C (46 °F).
The atmospheric pressure was 1020 hPa (30.11 inHg).
The relative humidity was 59.0%.
 
There were scattered clouds at a height of 1372 meters (4500 feet).
 
The overall visibility was 16.1 kilometers (10.0 miles).
 

 
 
 
 

Country :   A   B   C   D   E   F   G   H   I   J   K   L   M   N   O   P   Q   R   S   T   U   V   W   Y   Z

 

Site Info  |  Disclaimer  |  Credits  |  Privacy
Contact us  |  Add to favorites
© 2013-2018 METARs - All rights reserved